Time;durP1;ratioP1;P1;durP2;ratioP2;P2;SDS_P1;SDS_P2;PMS_P1;PMS_P2;Temp;Humidity;BMP_temperature;BMP_pressure;BME280_temperature;BME280_humidity;BME280_pressure;Samples;Min_cycle;Max_cycle;Signal;HPM_P1;HPM_P2
2023/07/03 03:02:06;;;;;;;19.00;11.13;;;24.50;38.00;;;;;;5225428;23;45899;-63
2023/07/03 03:04:32;;;;;;;16.65;11.35;;;24.50;38.10;;;;;;4966349;28;45796;-62
2023/07/03 03:06:57;;;;;;;16.73;10.50;;;24.50;38.10;;;;;;4976051;28;46701;-62
2023/07/03 03:09:23;;;;;;;18.45;10.57;;;24.50;38.20;;;;;;4978257;28;44974;-62
2023/07/03 03:11:48;;;;;;;17.55;10.18;;;24.50;38.20;;;;;;4990709;28;45423;-62
2023/07/03 03:14:14;;;;;;;18.92;10.35;;;24.50;38.10;;;;;;5002600;28;45765;-64
2023/07/03 03:16:39;;;;;;;15.55;10.45;;;24.50;38.10;;;;;;4978755;28;45405;-62
2023/07/03 03:19:05;;;;;;;15.35;10.35;;;24.50;38.10;;;;;;4995437;28;44736;-63
2023/07/03 03:21:30;;;;;;;17.13;10.52;;;24.50;38.10;;;;;;4982721;28;44851;-63
2023/07/03 03:23:56;;;;;;;15.40;10.98;;;24.50;38.10;;;;;;4996101;28;45328;-62
2023/07/03 03:26:22;;;;;;;18.50;11.35;;;24.50;38.20;;;;;;4968092;28;46035;-62
2023/07/03 03:28:47;;;;;;;17.70;10.60;;;24.50;38.10;;;;;;4996128;28;45582;-62
2023/07/03 03:31:13;;;;;;;16.80;10.80;;;24.40;38.10;;;;;;4987915;28;45630;-62
2023/07/03 03:33:38;;;;;;;19.08;10.70;;;24.40;38.10;;;;;;4975176;28;45296;-62
2023/07/03 03:36:04;;;;;;;17.00;11.35;;;24.40;38.20;;;;;;4990421;28;45013;-62
2023/07/03 03:38:29;;;;;;;21.00;11.60;;;24.40;38.20;;;;;;4986172;28;45433;-63
2023/07/03 03:40:57;;;;;;;16.27;10.45;;;24.40;38.20;;;;;;4971298;28;45334;-62
2023/07/03 03:43:22;;;;;;;16.40;10.65;;;24.40;38.10;;;;;;4998454;28;45281;-62
2023/07/03 03:45:58;;;;;;;16.38;10.55;;;24.40;38.20;;;;;;4984828;28;46289;-63
2023/07/03 03:48:24;;;;;;;17.00;10.75;;;24.40;38.80;;;;;;4951823;28;45632;-63
2023/07/03 03:50:50;;;;;;;20.42;11.50;;;24.40;38.30;;;;;;4964662;28;44959;-63
2023/07/03 03:53:16;;;;;;;18.27;10.13;;;24.40;38.30;;;;;;4966680;28;45046;-64
2023/07/03 03:55:41;;;;;;;16.98;10.55;;;24.30;38.90;;;;;;4963459;28;46195;-63
2023/07/03 03:58:09;;;;;;;20.17;11.13;;;24.40;38.30;;;;;;4974591;28;45148;-64
2023/07/03 04:00:34;;;;;;;15.43;9.88;;;24.40;38.20;;;;;;4962904;28;45653;-64
2023/07/03 04:03:00;;;;;;;15.38;10.57;;;24.40;38.30;;;;;;4996652;28;45995;-64
2023/07/03 04:05:26;;;;;;;19.42;11.13;;;24.40;38.30;;;;;;4987271;28;45211;-64
2023/07/03 04:07:51;;;;;;;20.83;10.57;;;24.30;38.30;;;;;;4988564;28;45266;-64
2023/07/03 04:10:17;;;;;;;17.92;10.63;;;24.30;38.40;;;;;;4983658;28;45327;-64
2023/07/03 04:12:42;;;;;;;17.08;9.73;;;24.30;38.50;;;;;;4992821;28;45511;-65
2023/07/03 04:15:11;;;;;;;16.42;9.85;;;24.30;38.40;;;;;;4969131;28;46184;-64
2023/07/03 04:17:36;;;;;;;19.33;11.10;;;24.30;38.50;;;;;;4989689;28;45411;-64
2023/07/03 04:20:07;;;;;;;14.63;10.07;;;24.30;38.50;;;;;;4983969;28;46139;-63
2023/07/03 04:22:33;;;;;;;13.23;9.07;;;24.30;38.60;;;;;;4954109;28;44746;-64
2023/07/03 04:24:59;;;;;;;17.73;10.23;;;24.30;38.60;;;;;;4993159;28;45613;-64
2023/07/03 04:27:24;;;;;;;20.60;10.55;;;24.30;38.70;;;;;;4992090;28;45038;-64
2023/07/03 04:29:50;;;;;;;17.02;9.73;;;24.30;38.70;;;;;;4969268;28;45541;-64
2023/07/03 04:32:16;;;;;;;17.52;10.35;;;24.30;38.80;;;;;;4984038;28;46617;-64
2023/07/03 04:34:41;;;;;;;16.00;9.98;;;24.20;38.80;;;;;;4980023;28;45802;-64
2023/07/03 04:37:08;;;;;;;16.55;9.77;;;24.20;39.40;;;;;;4989324;28;45198;-64
2023/07/03 04:39:34;;;;;;;16.98;10.27;;;24.20;39.00;;;;;;4993289;28;45080;-64
2023/07/03 04:42:00;;;;;;;16.08;10.07;;;24.20;38.90;;;;;;4961962;28;46452;-64
2023/07/03 04:44:29;;;;;;;16.65;9.30;;;24.10;39.00;;;;;;4990453;28;45504;-64
2023/07/03 04:46:55;;;;;;;16.75;10.40;;;24.10;39.10;;;;;;4978813;28;44696;-64
2023/07/03 04:49:26;;;;;;;15.02;9.40;;;24.20;39.00;;;;;;4993550;28;45297;-64
2023/07/03 04:51:55;;;;;;;16.33;10.13;;;24.10;39.00;;;;;;4963151;28;45697;-64
2023/07/03 04:54:20;;;;;;;16.80;10.00;;;24.10;39.10;;;;;;4973221;28;47039;-64
2023/07/03 04:56:48;;;;;;;17.17;9.85;;;24.10;39.10;;;;;;4965698;28;45188;-64
2023/07/03 04:59:14;;;;;;;18.75;10.10;;;24.10;39.30;;;;;;4974843;28;45241;-64
2023/07/03 05:01:42;;;;;;;16.20;9.38;;;24.10;39.30;;;;;;4939017;28;46461;-63
2023/07/03 05:04:11;;;;;;;16.25;10.73;;;24.10;39.30;;;;;;4947727;28;45744;-64
2023/07/03 05:06:37;;;;;;;15.35;9.60;;;24.10;39.30;;;;;;4962320;28;45300;-64
2023/07/03 05:09:03;;;;;;;16.20;9.65;;;24.10;39.30;;;;;;4967928;28;45026;-64
2023/07/03 05:11:29;;;;;;;16.52;9.85;;;24.10;39.30;;;;;;4945024;28;45459;-64
2023/07/03 05:13:55;;;;;;;15.13;9.85;;;24.20;39.40;;;;;;4961878;28;46002;-64
2023/07/03 05:16:21;;;;;;;16.30;9.10;;;24.10;39.40;;;;;;4934533;28;45718;-64
2023/07/03 05:18:46;;;;;;;16.77;9.48;;;24.10;39.40;;;;;;4962895;28;45352;-64
2023/07/03 05:21:12;;;;;;;15.07;9.23;;;24.10;39.40;;;;;;4964906;28;45627;-64
2023/07/03 05:23:37;;;;;;;18.20;9.23;;;24.10;39.30;;;;;;4964075;28;45523;-63
2023/07/03 05:26:03;;;;;;;16.38;9.40;;;24.20;39.30;;;;;;4943971;28;45623;-65
2023/07/03 05:28:29;;;;;;;16.77;9.73;;;24.10;39.30;;;;;;4965457;28;45093;-64
2023/07/03 05:30:55;;;;;;;15.60;9.43;;;24.10;39.40;;;;;;4954039;28;45980;-63
2023/07/03 05:33:21;;;;;;;17.90;9.18;;;24.20;39.50;;;;;;4972889;28;45909;-63
2023/07/03 05:35:47;;;;;;;16.55;10.27;;;24.10;39.50;;;;;;4971455;28;45100;-63
2023/07/03 05:38:12;;;;;;;16.48;9.55;;;24.10;39.50;;;;;;4969048;28;45230;-63
2023/07/03 05:40:38;;;;;;;14.20;8.80;;;24.10;39.50;;;;;;4981163;28;45415;-63
2023/07/03 05:43:03;;;;;;;16.83;9.88;;;24.10;39.50;;;;;;4982742;28;45956;-63
2023/07/03 05:45:29;;;;;;;19.40;9.25;;;24.10;39.50;;;;;;4975569;28;45055;-63
2023/07/03 05:47:54;;;;;;;14.65;8.35;;;24.10;39.50;;;;;;4979956;28;45169;-63
2023/07/03 05:50:20;;;;;;;15.32;8.77;;;24.10;39.60;;;;;;4985090;28;45588;-65
2023/07/03 05:52:46;;;;;;;14.18;8.68;;;24.10;39.80;;;;;;4972117;28;45663;-64
2023/07/03 05:55:11;;;;;;;18.40;9.48;;;24.10;39.60;;;;;;4982918;28;45293;-64
2023/07/03 05:57:37;;;;;;;16.95;9.48;;;24.10;39.60;;;;;;4984060;28;45126;-64
2023/07/03 06:00:10;;;;;;;15.18;8.38;;;24.20;39.50;;;;;;4987115;28;45241;-63
2023/07/03 06:02:37;;;;;;;15.05;7.90;;;24.20;39.50;;;;;;4969733;28;46152;-64
2023/07/03 06:05:03;;;;;;;12.27;8.27;;;24.30;39.40;;;;;;4985909;28;45490;-66
2023/07/03 06:07:29;;;;;;;16.27;8.90;;;24.30;39.40;;;;;;4927683;28;45946;-65
2023/07/03 06:09:57;;;;;;;17.73;8.60;;;24.30;39.30;;;;;;4993370;28;45615;-65
2023/07/03 06:12:25;;;;;;;13.20;7.78;;;24.30;39.40;;;;;;4991025;28;45470;-65
2023/07/03 06:14:50;;;;;;;18.60;7.72;;;24.30;39.40;;;;;;5000527;28;44859;-65
2023/07/03 06:17:16;;;;;;;17.40;8.57;;;24.30;39.40;;;;;;4980331;28;45291;-65
2023/07/03 06:19:41;;;;;;;15.40;8.40;;;24.30;39.40;;;;;;4972908;28;45697;-64
2023/07/03 06:22:07;;;;;;;13.80;8.43;;;24.30;39.40;;;;;;4977993;28;46960;-64
2023/07/03 06:24:33;;;;;;;13.70;7.40;;;24.40;39.50;;;;;;4981899;28;45109;-64
2023/07/03 06:26:58;;;;;;;14.82;8.40;;;24.40;39.50;;;;;;4960189;28;45746;-64
2023/07/03 06:29:24;;;;;;;17.05;7.97;;;24.40;39.40;;;;;;4972759;28;45273;-64
2023/07/03 06:31:51;;;;;;;11.82;7.18;;;24.40;39.40;;;;;;4988327;28;45613;-64
2023/07/03 06:34:17;;;;;;;13.35;7.65;;;24.40;39.30;;;;;;4979755;28;45596;-65
2023/07/03 06:36:42;;;;;;;12.57;7.57;;;24.50;39.40;;;;;;4987527;28;45541;-65
2023/07/03 06:39:08;;;;;;;11.50;7.65;;;24.50;39.30;;;;;;4999056;28;45499;-64
2023/07/03 06:41:34;;;;;;;16.27;8.05;;;24.50;39.40;;;;;;4987732;28;46078;-63
2023/07/03 06:44:00;;;;;;;15.50;7.70;;;24.50;39.50;;;;;;4993791;28;46121;-63
2023/07/03 06:46:25;;;;;;;14.15;7.78;;;24.60;39.40;;;;;;4989634;28;45428;-65
2023/07/03 06:48:54;;;;;;;15.43;7.63;;;24.60;39.40;;;;;;4987729;28;45401;-65
2023/07/03 06:51:19;;;;;;;14.25;7.78;;;24.60;39.40;;;;;;4957412;28;45695;-63
2023/07/03 06:53:45;;;;;;;12.77;7.93;;;24.60;39.40;;;;;;4975998;28;46420;-63
2023/07/03 06:56:10;;;;;;;21.40;7.75;;;24.60;39.50;;;;;;4983391;28;45630;-64
2023/07/03 06:58:36;;;;;;;14.55;7.47;;;24.60;39.60;;;;;;4991714;28;45460;-64
2023/07/03 07:01:10;;;;;;;16.73;7.78;;;24.60;39.50;;;;;;4952490;28;46161;-64
2023/07/03 07:03:36;;;;;;;13.68;7.03;;;24.70;39.80;;;;;;4960793;28;44910;-64
2023/07/03 07:06:16;;;;;;;16.08;7.03;;;24.60;39.60;;;;;;4970374;28;44913;-64
2023/07/03 07:08:42;;;;;;;15.50;7.55;;;24.70;39.70;;;;;;4989650;28;45034;-65
2023/07/03 07:11:12;;;;;;;12.18;7.43;;;24.70;39.70;;;;;;4970636;28;46606;-64
2023/07/03 07:13:40;;;;;;;15.23;7.25;;;24.70;39.70;;;;;;4971537;28;45091;-64
2023/07/03 07:16:22;;;;;;;14.70;6.95;;;24.80;39.70;;;;;;4967163;28;45613;-63
2023/07/03 07:18:51;;;;;;;9.97;6.87;;;24.80;39.60;;;;;;4986029;28;44976;-69
2023/07/03 07:21:17;;;;;;;14.55;7.63;;;24.80;39.60;;;;;;4960590;28;45422;-66
2023/07/03 07:23:43;;;;;;;14.00;7.60;;;24.80;39.50;;;;;;4968465;28;45539;-67
2023/07/03 07:26:08;;;;;;;14.45;7.28;;;24.80;39.50;;;;;;4967497;28;45387;-67
2023/07/03 07:28:34;;;;;;;16.42;7.97;;;24.90;39.40;;;;;;4972803;28;45026;-66
2023/07/03 07:30:59;;;;;;;14.77;7.00;;;24.90;39.40;;;;;;4948520;28;46073;-70
2023/07/03 07:33:25;;;;;;;15.35;7.60;;;25.00;39.30;;;;;;4961424;28;45265;-67
2023/07/03 07:35:51;;;;;;;12.98;6.82;;;25.10;39.10;;;;;;4993510;28;46131;-68
2023/07/03 07:38:18;;;;;;;12.18;6.95;;;25.20;39.00;;;;;;4962614;28;45505;-66
2023/07/03 07:40:43;;;;;;;15.73;7.03;;;25.20;38.80;;;;;;4960800;28;46008;-67
2023/07/03 07:43:09;;;;;;;12.02;6.80;;;25.30;38.70;;;;;;4972171;28;45542;-68
2023/07/03 07:45:34;;;;;;;15.05;7.28;;;25.40;38.70;;;;;;4968528;28;45199;-67
2023/07/03 07:48:00;;;;;;;13.40;7.03;;;25.40;38.60;;;;;;4971296;28;45433;-67
2023/07/03 07:50:27;;;;;;;13.57;6.95;;;25.40;38.50;;;;;;4967716;28;45548;-66
2023/07/03 07:52:53;;;;;;;12.77;6.53;;;25.40;38.40;;;;;;4977968;28;45468;-67
2023/07/03 07:55:19;;;;;;;18.65;7.93;;;25.50;38.30;;;;;;4958327;28;45343;-67
2023/07/03 07:57:45;;;;;;;14.10;6.97;;;25.50;38.40;;;;;;4961017;28;45121;-67
2023/07/03 08:00:11;;;;;;;13.25;7.03;;;25.50;38.30;;;;;;4982975;28;46177;-66
2023/07/03 08:02:36;;;;;;;11.98;6.72;;;25.50;38.40;;;;;;4960662;28;45026;-68
2023/07/03 08:05:02;;;;;;;13.48;6.85;;;25.50;38.40;;;;;;4951887;28;46446;-67
2023/07/03 08:07:28;;;;;;;10.52;6.47;;;25.50;38.40;;;;;;4946783;28;45653;-67
2023/07/03 08:09:53;;;;;;;15.43;6.50;;;25.40;38.30;;;;;;4965258;28;46793;-67
2023/07/03 08:12:19;;;;;;;13.88;6.00;;;25.40;38.20;;;;;;4962918;28;45624;-66
2023/07/03 08:14:44;;;;;;;12.75;6.80;;;25.40;38.20;;;;;;4965594;28;45715;-66
2023/07/03 08:17:10;;;;;;;14.68;6.07;;;25.40;38.20;;;;;;4958108;28;45071;-68
2023/07/03 08:19:36;;;;;;;12.05;5.47;;;25.40;38.20;;;;;;4938849;28;46355;-68
2023/07/03 08:22:01;;;;;;;14.05;6.90;;;25.40;38.20;;;;;;4958294;28;45466;-68
2023/07/03 08:24:27;;;;;;;12.65;5.90;;;25.40;38.20;;;;;;4967772;28;44928;-67
2023/07/03 08:26:54;;;;;;;11.43;6.18;;;25.40;38.10;;;;;;4961006;28;45496;-68
2023/07/03 08:29:19;;;;;;;13.57;6.38;;;25.50;38.10;;;;;;4966273;28;46214;-67
2023/07/03 08:31:45;;;;;;;14.52;7.28;;;25.60;37.90;;;;;;4956007;28;45546;-67
2023/07/03 08:34:10;;;;;;;16.60;6.07;;;25.60;37.70;;;;;;4967005;28;45391;-67
2023/07/03 08:36:36;;;;;;;12.25;6.05;;;25.70;37.60;;;;;;4961620;28;45328;-67
2023/07/03 08:39:02;;;;;;;12.18;6.28;;;25.70;37.50;;;;;;4968310;28;45881;-69
2023/07/03 08:41:28;;;;;;;12.10;6.38;;;25.80;37.40;;;;;;4967020;28;45325;-68
2023/07/03 08:43:55;;;;;;;14.60;6.38;;;25.80;37.30;;;;;;4966912;28;45689;-68
2023/07/03 08:46:24;;;;;;;12.68;6.75;;;25.80;37.10;;;;;;4951812;28;45225;-67
2023/07/03 08:48:51;;;;;;;12.23;6.28;;;25.80;37.20;;;;;;4963990;28;46781;-69
2023/07/03 08:51:18;;;;;;;13.45;6.20;;;25.80;37.00;;;;;;4960745;28;45835;-69
2023/07/03 08:53:50;;;;;;;16.35;6.47;;;25.90;37.10;;;;;;4952955;28;45667;-67
2023/07/03 08:56:26;;;;;;;13.45;6.22;;;25.90;37.00;;;;;;4960144;28;46087;-67
2023/07/03 08:58:55;;;;;;;11.40;5.95;;;25.90;36.90;;;;;;4962933;28;46438;-68
2023/07/03 09:01:47;;;;;;;12.88;5.80;;;25.80;36.90;;;;;;4956592;28;45415;-68
2023/07/03 09:04:21;;;;;;;11.40;5.38;;;25.90;36.80;;;;;;4965583;28;45458;-67
2023/07/03 09:06:55;;;;;;;14.15;5.95;;;25.90;36.90;;;;;;4966859;28;45046;-67
2023/07/03 09:09:35;;;;;;;13.25;6.45;;;25.90;36.70;;;;;;4954829;28;47007;-68
2023/07/03 09:12:21;;;;;;;10.40;5.18;;;25.90;36.80;;;;;;4976397;28;45036;-67
2023/07/03 09:15:07;;;;;;;14.15;6.05;;;25.90;36.50;;;;;;4952616;28;44702;-65
2023/07/03 09:17:33;;;;;;;13.38;5.38;;;25.90;36.70;;;;;;4958868;28;45094;-69
2023/07/03 09:19:59;;;;;;;10.93;5.47;;;26.00;36.90;;;;;;4967146;28;45494;-69
2023/07/03 09:22:33;;;;;;;14.27;6.00;;;26.00;36.70;;;;;;4963600;28;45656;-68
2023/07/03 09:24:59;;;;;;;18.17;5.72;;;26.00;36.60;;;;;;4972970;28;45582;-69
2023/07/03 09:27:26;;;;;;;11.60;5.20;;;26.00;36.50;;;;;;4971019;28;46010;-68
2023/07/03 09:29:52;;;;;;;11.55;5.55;;;26.00;36.30;;;;;;4969568;28;44976;-67
2023/07/03 09:32:25;;;;;;;12.15;5.45;;;26.00;36.30;;;;;;4975938;28;45606;-68
2023/07/03 09:35:05;;;;;;;15.48;6.03;;;26.00;36.20;;;;;;4988191;28;44982;-69
2023/07/03 09:37:31;;;;;;;13.88;5.28;;;26.10;36.00;;;;;;4954478;28;46004;-68
2023/07/03 09:39:57;;;;;;;11.98;5.60;;;26.00;36.10;;;;;;4975695;28;46280;-69
2023/07/03 09:42:22;;;;;;;11.60;5.07;;;26.10;36.20;;;;;;4954280;28;45391;-66
2023/07/03 09:44:48;;;;;;;10.85;5.22;;;26.00;36.00;;;;;;4971155;28;45274;-68
2023/07/03 09:47:21;;;;;;;11.32;4.35;;;25.90;35.90;;;;;;4929924;28;44701;-68
2023/07/03 09:49:47;;;;;;;11.38;4.80;;;25.80;35.80;;;;;;4968823;28;46373;-68
2023/07/03 09:52:13;;;;;;;8.40;4.45;;;25.80;35.90;;;;;;4983843;28;45943;-67
2023/07/03 09:54:42;;;;;;;12.25;4.60;;;25.80;36.00;;;;;;4973694;28;45523;-68
2023/07/03 09:57:22;;;;;;;9.20;4.10;;;25.70;35.90;;;;;;4965417;28;45371;-71
2023/07/03 09:59:48;;;;;;;10.45;4.20;;;25.70;35.70;;;;;;4956242;28;47081;-69
2023/07/03 10:02:14;;;;;;;12.77;4.63;;;25.70;35.90;;;;;;4981771;28;45475;-68
2023/07/03 10:04:44;;;;;;;8.43;4.05;;;25.60;35.90;;;;;;4942554;28;45530;-68
2023/07/03 10:07:15;;;;;;;9.32;4.25;;;25.60;35.70;;;;;;4964641;28;46011;-68
2023/07/03 10:09:41;;;;;;;9.88;3.83;;;25.60;35.90;;;;;;4948061;28;47023;-67
2023/07/03 10:12:16;;;;;;;11.02;4.30;;;25.60;35.90;;;;;;4956258;28;45580;-68
2023/07/03 10:15:01;;;;;;;11.02;4.72;;;25.60;35.80;;;;;;4978652;28;45480;-67
2023/07/03 10:17:40;;;;;;;9.80;4.10;;;25.60;35.50;;;;;;4960400;28;45147;-67
2023/07/03 10:20:10;;;;;;;7.45;3.75;;;25.50;35.40;;;;;;4949299;28;47956;-68
2023/07/03 10:22:37;;;;;;;9.90;4.03;;;25.50;35.60;;;;;;4973202;28;45459;-67
2023/07/03 10:25:05;;;;;;;7.03;3.40;;;25.50;35.50;;;;;;4952375;28;45835;-69
2023/07/03 10:27:32;;;;;;;8.90;4.00;;;25.50;35.50;;;;;;4947479;28;45882;-67
2023/07/03 10:29:59;;;;;;;11.60;4.38;;;25.50;35.50;;;;;;4976341;28;46211;-67
2023/07/03 10:32:26;;;;;;;10.00;4.15;;;25.50;35.50;;;;;;4963058;28;44913;-67
2023/07/03 10:35:01;;;;;;;10.65;3.75;;;25.50;35.50;;;;;;4959396;28;44855;-68
2023/07/03 10:37:26;;;;;;;7.70;4.00;;;25.50;35.40;;;;;;4968987;28;45341;-67
2023/07/03 10:40:00;;;;;;;5.95;3.08;;;25.50;35.40;;;;;;4979954;28;45047;-67
2023/07/03 10:42:33;;;;;;;7.25;3.72;;;25.50;35.30;;;;;;4978856;28;45129;-67
2023/07/03 10:45:09;;;;;;;9.40;3.35;;;25.50;35.50;;;;;;4977698;28;45128;-66
2023/07/03 10:47:43;;;;;;;9.43;3.53;;;25.40;35.30;;;;;;4955344;28;45311;-67
2023/07/03 10:50:08;;;;;;;10.40;3.53;;;25.40;35.40;;;;;;4957204;28;46313;-67
2023/07/03 10:52:56;;;;;;;7.85;3.67;;;25.50;35.50;;;;;;4972620;28;45189;-64
2023/07/03 10:55:47;;;;;;;8.10;3.45;;;25.50;35.20;;;;;;4983284;28;45251;-63
2023/07/03 10:58:31;;;;;;;11.55;4.00;;;25.40;35.20;;;;;;4961445;28;45453;-66
2023/07/03 11:01:24;;;;;;;7.63;3.50;;;25.40;34.90;;;;;;4981386;28;45272;-62
2023/07/03 11:04:04;;;;;;;12.52;3.53;;;25.40;34.80;;;;;;4969232;28;45323;-63
2023/07/03 11:06:37;;;;;;;8.07;3.15;;;25.40;34.90;;;;;;4964972;28;45477;-62
2023/07/03 11:09:29;;;;;;;;;;;25.40;34.60;;;;;;4973446;28;45191;-61
2023/07/03 11:12:15;;;;;;;9.77;3.10;;;25.40;34.20;;;;;;4946666;28;45879;-61
2023/07/03 11:15:13;;;;;;;6.32;2.70;;;25.40;34.60;;;;;;4961662;28;45248;-62
2023/07/03 11:17:45;;;;;;;7.88;2.60;;;25.40;34.10;;;;;;4934472;28;45474;-61
2023/07/03 11:20:24;;;;;;;7.13;2.33;;;25.40;34.50;;;;;;4970990;28;45636;-61
2023/07/03 11:22:56;;;;;;;5.82;2.30;;;25.40;34.30;;;;;;4973083;28;45285;-62
2023/07/03 11:25:32;;;;;;;5.35;2.50;;;25.40;34.60;;;;;;4962982;28;45636;-62
2023/07/03 11:28:12;;;;;;;7.57;2.47;;;25.40;34.60;;;;;;4948550;28;45776;-62
2023/07/03 11:30:39;;;;;;;4.95;2.42;;;25.40;34.30;;;;;;4944946;28;45779;-64
2023/07/03 11:33:07;;;;;;;7.07;2.50;;;25.40;34.50;;;;;;4959939;28;45509;-68
2023/07/03 11:35:33;;;;;;;4.78;2.20;;;25.40;34.50;;;;;;4969934;28;45449;-64
2023/07/03 11:38:06;;;;;;;5.07;2.33;;;25.40;34.50;;;;;;4966656;28;45120;-64
2023/07/03 11:40:39;;;;;;;5.25;1.75;;;25.40;34.40;;;;;;4966271;28;45678;-63
2023/07/03 11:43:17;;;;;;;5.20;1.92;;;25.40;34.30;;;;;;4976501;28;47180;-63
2023/07/03 11:45:58;;;;;;;8.05;2.47;;;25.40;34.30;;;;;;4961950;28;45375;-63
2023/07/03 11:48:35;;;;;;;5.07;1.90;;;25.40;34.20;;;;;;4984576;28;44698;-63
2023/07/03 11:51:03;;;;;;;5.30;2.17;;;25.50;34.40;;;;;;4984123;28;45501;-62
2023/07/03 11:53:39;;;;;;;2.97;1.85;;;25.40;34.40;;;;;;4956020;28;45823;-62
2023/07/03 11:56:05;;;;;;;7.85;2.05;;;25.50;34.10;;;;;;4982215;28;45232;-64
2023/07/03 11:58:33;;;;;;;3.95;2.13;;;25.50;34.20;;;;;;4936325;28;46518;-63
2023/07/03 12:01:20;;;;;;;4.78;2.08;;;25.50;34.30;;;;;;4952530;28;45363;-64
2023/07/03 12:03:54;;;;;;;6.78;1.90;;;25.50;34.00;;;;;;4984668;28;45649;-62
2023/07/03 12:06:38;;;;;;;3.30;1.50;;;25.60;34.30;;;;;;4967646;28;44984;-64
2023/07/03 12:09:26;;;;;;;5.90;2.00;;;25.60;34.10;;;;;;4986389;28;45239;-62
2023/07/03 12:12:00;;;;;;;5.25;1.88;;;25.60;34.00;;;;;;4983970;28;45932;-61
2023/07/03 12:17:17;;;;;;;3.17;1.52;;;25.60;34.00;;;;;;4976670;28;45402;-62
2023/07/03 12:19:42;;;;;;;3.00;1.40;;;25.60;34.70;;;;;;4968329;28;45113;-63
2023/07/03 12:22:11;;;;;;;5.70;1.88;;;25.70;34.30;;;;;;4936616;28;44913;-62
2023/07/03 12:24:37;;;;;;;2.72;1.13;;;25.70;34.20;;;;;;4954374;28;46098;-62
2023/07/03 12:27:04;;;;;;;3.88;1.63;;;25.80;34.20;;;;;;4992324;28;45291;-62
2023/07/03 12:29:30;;;;;;;3.67;1.33;;;25.80;34.20;;;;;;4966939;28;45273;-62
2023/07/03 12:31:57;;;;;;;6.30;1.25;;;25.80;34.20;;;;;;4966085;28;46533;-62
2023/07/03 12:34:25;;;;;;;4.93;1.50;;;25.80;34.30;;;;;;4983141;28;44905;-62
2023/07/03 12:36:50;;;;;;;5.88;2.05;;;25.80;34.30;;;;;;4971628;28;45612;-62
2023/07/03 12:39:15;;;;;;;3.38;1.38;;;25.90;34.40;;;;;;4969218;28;45082;-62
2023/07/03 12:41:41;;;;;;;3.03;1.40;;;25.90;34.40;;;;;;4981892;28;45015;-63
2023/07/03 12:44:08;;;;;;;3.28;1.15;;;25.90;34.40;;;;;;4974708;28;45608;-62
2023/07/03 12:46:35;;;;;;;4.97;1.73;;;25.90;34.40;;;;;;4957165;28;45719;-63
2023/07/03 12:49:13;;;;;;;3.00;1.40;;;25.90;34.40;;;;;;4991912;28;45430;-62
2023/07/03 12:51:54;;;;;;;3.38;1.42;;;26.00;34.30;;;;;;4968329;28;45308;-63
2023/07/03 12:54:24;;;;;;;5.22;1.58;;;26.00;34.10;;;;;;4956018;28;47292;-62
2023/07/03 12:56:51;;;;;;;3.10;1.50;;;26.00;34.40;;;;;;4949053;28;45395;-63
2023/07/03 12:59:21;;;;;;;4.15;1.42;;;26.00;34.20;;;;;;4948235;28;46114;-65
2023/07/03 13:01:49;;;;;;;1.77;1.00;;;26.00;34.20;;;;;;4937128;28;45376;-64
2023/07/03 13:04:23;;;;;;;4.10;1.40;;;26.10;34.30;;;;;;4964035;28;46029;-65
2023/07/03 13:06:49;;;;;;;3.50;1.40;;;26.00;34.30;;;;;;4951076;28;45398;-64
2023/07/03 13:09:14;;;;;;;2.15;1.20;;;26.10;34.20;;;;;;4944304;28;45303;-65
2023/07/03 13:11:43;;;;;;;4.15;1.80;;;26.10;34.20;;;;;;4971914;28;45326;-65
2023/07/03 13:14:12;;;;;;;3.15;1.48;;;26.10;34.20;;;;;;4961676;28;46891;-65
2023/07/03 13:16:38;;;;;;;2.72;1.40;;;26.10;34.30;;;;;;4949894;28;45566;-64
2023/07/03 13:19:04;;;;;;;6.60;1.40;;;26.10;34.30;;;;;;4971431;28;45235;-65
2023/07/03 13:21:30;;;;;;;1.98;1.20;;;26.10;34.30;;;;;;4952096;28;45064;-64
2023/07/03 13:24:04;;;;;;;4.45;1.35;;;26.10;34.30;;;;;;4962509;28;46536;-65
2023/07/03 13:26:29;;;;;;;2.95;1.35;;;26.20;34.10;;;;;;4956464;28;45047;-65
2023/07/03 13:28:58;;;;;;;2.10;1.08;;;26.20;34.30;;;;;;4963326;28;45447;-65
2023/07/03 13:31:24;;;;;;;5.30;1.33;;;26.20;34.30;;;;;;4936079;28;45277;-64
2023/07/03 13:34:00;;;;;;;2.53;1.17;;;26.20;34.20;;;;;;4947463;28;46725;-65
2023/07/03 13:36:29;;;;;;;4.60;1.42;;;26.30;34.10;;;;;;4953747;28;45400;-65
2023/07/03 13:39:06;;;;;;;2.92;1.20;;;26.30;34.20;;;;;;4958537;28;45506;-65
2023/07/03 13:41:32;;;;;;;3.47;1.50;;;26.30;33.90;;;;;;4933377;28;45796;-65
2023/07/03 13:43:57;;;;;;;4.45;1.15;;;26.30;34.10;;;;;;4942135;28;46730;-65
2023/07/03 13:46:24;;;;;;;3.15;1.05;;;26.30;34.10;;;;;;4950850;28;44747;-64
2023/07/03 13:48:50;;;;;;;2.38;1.08;;;26.30;34.30;;;;;;4975246;28;45235;-65
2023/07/03 13:51:15;;;;;;;2.55;1.10;;;26.30;34.30;;;;;;4970050;28;46972;-64
2023/07/03 13:53:41;;;;;;;5.05;1.17;;;26.30;34.50;;;;;;4960302;28;46858;-64
2023/07/03 13:56:06;;;;;;;2.28;1.20;;;26.40;34.50;;;;;;4950483;28;45293;-64
2023/07/03 13:58:32;;;;;;;1.83;1.00;;;26.40;34.30;;;;;;4957728;28;45199;-64
2023/07/03 14:00:58;;;;;;;2.00;0.90;;;26.40;34.30;;;;;;4967526;28;45374;-65
2023/07/03 14:03:23;;;;;;;2.85;1.20;;;26.40;34.30;;;;;;4971903;28;47237;-65
2023/07/03 14:05:50;;;;;;;2.35;1.10;;;26.40;34.20;;;;;;4987232;28;45445;-64
2023/07/03 14:08:16;;;;;;;1.25;0.73;;;26.40;34.10;;;;;;4963996;28;45568;-64
2023/07/03 14:10:41;;;;;;;2.55;0.68;;;26.40;34.00;;;;;;4985787;28;44792;-64
2023/07/03 14:13:08;;;;;;;3.63;1.15;;;26.40;34.10;;;;;;4977192;28;46184;-63
2023/07/03 14:15:35;;;;;;;1.95;1.00;;;26.40;34.00;;;;;;4970416;28;44764;-63
2023/07/03 14:18:00;;;;;;;1.92;0.90;;;26.40;34.00;;;;;;4957503;28;45716;-63
2023/07/03 14:20:26;;;;;;;4.70;0.88;;;26.40;34.00;;;;;;4958328;28;45201;-64
2023/07/03 14:22:52;;;;;;;4.10;1.08;;;26.50;34.20;;;;;;4953750;28;46378;-64
2023/07/03 14:25:17;;;;;;;1.67;0.90;;;26.50;34.10;;;;;;4983498;28;44922;-64
2023/07/03 14:27:43;;;;;;;3.85;1.05;;;26.50;34.20;;;;;;4960296;28;45355;-64
2023/07/03 14:30:09;;;;;;;1.75;0.73;;;26.50;34.00;;;;;;4974779;28;45122;-63
2023/07/03 14:32:35;;;;;;;1.65;0.80;;;26.50;33.90;;;;;;4973319;28;45242;-64
2023/07/03 14:35:03;;;;;;;4.57;0.98;;;26.50;33.70;;;;;;4959154;28;44893;-64
2023/07/03 14:37:29;;;;;;;2.20;0.75;;;26.50;33.50;;;;;;4969047;28;45511;-64
2023/07/03 14:39:57;;;;;;;3.05;0.80;;;26.40;33.30;;;;;;4952185;28;45160;-64
2023/07/03 14:42:22;;;;;;;1.42;0.77;;;26.50;33.20;;;;;;4968284;28;48922;-64
2023/07/03 14:44:48;;;;;;;3.42;1.25;;;26.50;33.30;;;;;;4975972;28;45326;-64
2023/07/03 14:47:13;;;;;;;2.88;1.10;;;26.50;33.40;;;;;;4960802;28;45021;-63
2023/07/03 14:49:39;;;;;;;2.95;1.38;;;26.50;33.30;;;;;;4993549;28;45396;-62
2023/07/03 14:52:05;;;;;;;3.08;1.05;;;26.50;33.10;;;;;;4939412;28;45553;-63
2023/07/03 14:54:32;;;;;;;4.07;1.13;;;26.50;33.10;;;;;;4978622;28;45443;-63
2023/07/03 14:56:57;;;;;;;3.08;1.30;;;26.50;33.10;;;;;;4974024;28;45280;-64
2023/07/03 14:59:23;;;;;;;2.10;1.00;;;26.50;32.90;;;;;;4993883;28;45916;-63
2023/07/03 15:01:48;;;;;;;2.03;1.10;;;26.50;32.90;;;;;;4962187;28;46957;-62
2023/07/03 15:04:14;;;;;;;1.95;0.90;;;26.60;32.80;;;;;;4989337;28;45431;-65
2023/07/03 15:06:40;;;;;;;1.98;1.10;;;26.60;32.70;;;;;;4956685;28;45305;-63
2023/07/03 15:09:07;;;;;;;2.78;1.10;;;26.60;32.60;;;;;;4968089;28;45891;-63
2023/07/03 15:11:33;;;;;;;1.73;0.95;;;26.60;32.40;;;;;;4985230;28;46181;-64
2023/07/03 15:13:58;;;;;;;3.40;1.00;;;26.60;32.40;;;;;;4973719;28;45296;-63
2023/07/03 15:16:27;;;;;;;2.80;0.98;;;26.60;32.50;;;;;;4981684;28;45823;-64
2023/07/03 15:18:53;;;;;;;2.63;0.98;;;26.60;32.40;;;;;;4972880;28;46168;-63
2023/07/03 15:21:18;;;;;;;4.38;1.35;;;26.60;32.50;;;;;;4971765;28;47023;-63
2023/07/03 15:23:44;;;;;;;2.15;0.75;;;26.60;32.50;;;;;;4973992;28;44986;-64
2023/07/03 15:26:09;;;;;;;2.90;1.00;;;26.60;32.50;;;;;;4983023;28;44729;-63
2023/07/03 15:28:35;;;;;;;2.05;0.80;;;26.60;32.50;;;;;;4969766;28;44730;-63
2023/07/03 15:31:03;;;;;;;1.88;0.80;;;26.60;32.60;;;;;;4957275;28;46185;-64
2023/07/03 15:33:29;;;;;;;2.28;1.00;;;26.60;32.50;;;;;;4971045;28;44790;-64
2023/07/03 15:35:55;;;;;;;2.15;1.05;;;26.60;32.50;;;;;;4976324;28;44725;-63
2023/07/03 15:38:21;;;;;;;2.95;1.10;;;26.60;32.60;;;;;;4965887;28;47428;-63
2023/07/03 15:40:56;;;;;;;2.25;1.00;;;26.60;32.70;;;;;;4970277;28;45208;-63
2023/07/03 15:43:22;;;;;;;2.83;0.80;;;26.60;32.40;;;;;;4971839;28;44893;-63
2023/07/03 15:46:05;;;;;;;3.05;0.95;;;26.60;32.70;;;;;;4956757;28;45905;-63
2023/07/03 15:48:31;;;;;;;1.95;1.00;;;26.60;32.40;;;;;;4978634;28;45053;-62
2023/07/03 15:50:57;;;;;;;2.83;1.08;;;26.60;32.70;;;;;;4950097;28;45326;-63